KPTW

Heritage Field Airport

Pottstown, Pennsylvania, USA
METAR KPTW 231454Z AUTO 35010KT 9SM SCT025 BKN035 BKN043 23/18 A2999 RMK AO2 SLP151 T02280178 53004
Observed Flight Rules
May-23 @ 14:54 UTC (17 minutes ago) Visual Flight Rules
Wind Visibility Clouds
350° at 10 knots 9 miles
  • Scattered at 2,500' AGL
  • Broken at 3,500' AGL
  • Broken at 4,300' AGL
Temperatures Readings
Current 23°C / 73°F
Dewpoint 18°C / 64°F
Humidity 74%
Altimeter 29.99" Hg
Pressure 1015.1 hPa
Elevation 92
METAR KPTW 231454Z AUTO 35010KT 9SM SCT025 BKN035 BKN043 23/18 A2999 RMK AO2 SLP151 T02280178 53004
Observed Flight Rules
May-23 @ 14:54 UTC
(17 minutes ago)
VFR
Wind Visibility
350° at 10 knots 9 miles
Clouds
  • Scattered at 2,500' AGL
  • Broken at 3,500' AGL
  • Broken at 4,300' AGL
Temperature Dewpoint
23°C / 73°F 18°C / 64°F
Humidity Altimeter Pressure
74% 29.99" Hg 1015.1 hPa